sensor_id;sensor_type;location;lat;lon;timestamp;P1;durP1;ratioP1;P2;durP2;ratioP2
29538;SDS011;16482;51.046;4.498;2022-09-09T00:01:07;2.20;;;1.00;;
29538;SDS011;16482;51.046;4.498;2022-09-09T00:03:44;0.70;;;0.65;;
29538;SDS011;16482;51.046;4.498;2022-09-09T00:06:21;1.42;;;0.70;;
29538;SDS011;16482;51.046;4.498;2022-09-09T00:17:13;1.45;;;0.98;;
29538;SDS011;16482;51.046;4.498;2022-09-09T00:20:16;0.70;;;0.70;;
29538;SDS011;16482;51.046;4.498;2022-09-09T00:28:33;0.82;;;0.80;;
29538;SDS011;16482;51.046;4.498;2022-09-09T00:31:12;1.08;;;0.70;;
29538;SDS011;16482;51.046;4.498;2022-09-09T00:33:41;1.98;;;0.70;;
29538;SDS011;16482;51.046;4.498;2022-09-09T00:36:13;1.20;;;0.80;;
29538;SDS011;16482;51.046;4.498;2022-09-09T00:38:48;1.20;;;0.70;;
29538;SDS011;16482;51.046;4.498;2022-09-09T00:44:18;1.15;;;0.70;;
29538;SDS011;16482;51.046;4.498;2022-09-09T00:58:30;1.50;;;0.80;;
29538;SDS011;16482;51.046;4.498;2022-09-09T01:01:04;1.55;;;0.63;;
29538;SDS011;16482;51.046;4.498;2022-09-09T01:03:46;0.80;;;0.60;;
29538;SDS011;16482;51.046;4.498;2022-09-09T01:06:37;1.05;;;0.77;;
29538;SDS011;16482;51.046;4.498;2022-09-09T01:12:07;2.20;;;1.02;;
29538;SDS011;16482;51.046;4.498;2022-09-09T01:14:45;1.50;;;0.70;;
29538;SDS011;16482;51.046;4.498;2022-09-09T01:26:09;1.85;;;1.00;;
29538;SDS011;16482;51.046;4.498;2022-09-09T01:28:54;1.63;;;1.02;;
29538;SDS011;16482;51.046;4.498;2022-09-09T01:31:32;1.35;;;0.85;;
29538;SDS011;16482;51.046;4.498;2022-09-09T01:34:11;1.55;;;0.75;;
29538;SDS011;16482;51.046;4.498;2022-09-09T01:36:43;0.73;;;0.63;;
29538;SDS011;16482;51.046;4.498;2022-09-09T01:39:22;1.13;;;0.70;;
29538;SDS011;16482;51.046;4.498;2022-09-09T01:41:55;0.95;;;0.80;;
29538;SDS011;16482;51.046;4.498;2022-09-09T01:44:25;1.30;;;0.70;;
29538;SDS011;16482;51.046;4.498;2022-09-09T01:46:52;0.90;;;0.60;;
29538;SDS011;16482;51.046;4.498;2022-09-09T01:49:25;1.38;;;0.60;;
29538;SDS011;16482;51.046;4.498;2022-09-09T01:51:54;1.40;;;0.63;;
29538;SDS011;16482;51.046;4.498;2022-09-09T01:54:22;1.05;;;0.60;;
29538;SDS011;16482;51.046;4.498;2022-09-09T01:57:00;1.65;;;0.80;;
29538;SDS011;16482;51.046;4.498;2022-09-09T02:05:22;1.20;;;0.73;;
29538;SDS011;16482;51.046;4.498;2022-09-09T02:10:53;3.25;;;0.70;;
29538;SDS011;16482;51.046;4.498;2022-09-09T02:13:36;0.85;;;0.52;;
29538;SDS011;16482;51.046;4.498;2022-09-09T02:16:26;1.70;;;0.70;;
29538;SDS011;16482;51.046;4.498;2022-09-09T02:19:35;1.10;;;0.70;;
29538;SDS011;16482;51.046;4.498;2022-09-09T02:22:05;2.00;;;0.63;;
29538;SDS011;16482;51.046;4.498;2022-09-09T02:24:33;1.30;;;0.60;;
29538;SDS011;16482;51.046;4.498;2022-09-09T02:27:02;1.77;;;0.60;;
29538;SDS011;16482;51.046;4.498;2022-09-09T02:29:39;0.93;;;0.77;;
29538;SDS011;16482;51.046;4.498;2022-09-09T02:32:08;1.67;;;0.95;;
29538;SDS011;16482;51.046;4.498;2022-09-09T02:34:45;1.85;;;0.95;;
29538;SDS011;16482;51.046;4.498;2022-09-09T02:37:22;1.15;;;0.70;;
29538;SDS011;16482;51.046;4.498;2022-09-09T02:39:53;1.52;;;0.80;;
29538;SDS011;16482;51.046;4.498;2022-09-09T02:42:20;1.08;;;0.70;;
29538;SDS011;16482;51.046;4.498;2022-09-09T02:44:46;1.02;;;0.70;;
29538;SDS011;16482;51.046;4.498;2022-09-09T02:47:18;1.33;;;0.93;;
29538;SDS011;16482;51.046;4.498;2022-09-09T02:50:33;2.15;;;0.90;;
29538;SDS011;16482;51.046;4.498;2022-09-09T02:53:17;1.33;;;0.85;;
29538;SDS011;16482;51.046;4.498;2022-09-09T02:55:46;1.52;;;0.70;;
29538;SDS011;16482;51.046;4.498;2022-09-09T02:58:17;1.77;;;0.82;;
29538;SDS011;16482;51.046;4.498;2022-09-09T03:00:45;1.17;;;0.75;;
29538;SDS011;16482;51.046;4.498;2022-09-09T03:03:12;1.85;;;0.82;;
29538;SDS011;16482;51.046;4.498;2022-09-09T03:05:41;1.08;;;0.80;;
29538;SDS011;16482;51.046;4.498;2022-09-09T03:08:07;1.10;;;0.60;;
29538;SDS011;16482;51.046;4.498;2022-09-09T03:10:34;1.00;;;0.80;;
29538;SDS011;16482;51.046;4.498;2022-09-09T03:13:00;1.98;;;0.98;;
29538;SDS011;16482;51.046;4.498;2022-09-09T03:15:30;1.55;;;0.70;;
29538;SDS011;16482;51.046;4.498;2022-09-09T03:17:56;1.45;;;0.80;;
29538;SDS011;16482;51.046;4.498;2022-09-09T03:20:26;1.75;;;0.90;;
29538;SDS011;16482;51.046;4.498;2022-09-09T03:22:54;0.85;;;0.70;;
29538;SDS011;16482;51.046;4.498;2022-09-09T03:25:21;1.20;;;0.80;;
29538;SDS011;16482;51.046;4.498;2022-09-09T03:27:50;1.92;;;1.02;;
29538;SDS011;16482;51.046;4.498;2022-09-09T03:30:20;1.55;;;0.77;;
29538;SDS011;16482;51.046;4.498;2022-09-09T03:32:47;1.70;;;0.90;;
29538;SDS011;16482;51.046;4.498;2022-09-09T03:35:13;2.17;;;1.00;;
29538;SDS011;16482;51.046;4.498;2022-09-09T03:37:42;2.25;;;1.05;;
29538;SDS011;16482;51.046;4.498;2022-09-09T03:40:16;1.45;;;0.93;;
29538;SDS011;16482;51.046;4.498;2022-09-09T03:42:44;1.70;;;0.70;;
29538;SDS011;16482;51.046;4.498;2022-09-09T03:45:12;1.02;;;0.80;;
29538;SDS011;16482;51.046;4.498;2022-09-09T03:47:46;1.58;;;0.93;;
29538;SDS011;16482;51.046;4.498;2022-09-09T03:50:15;1.75;;;1.20;;
29538;SDS011;16482;51.046;4.498;2022-09-09T03:52:43;3.30;;;0.82;;
29538;SDS011;16482;51.046;4.498;2022-09-09T03:55:16;1.27;;;0.90;;
29538;SDS011;16482;51.046;4.498;2022-09-09T03:57:42;1.65;;;0.93;;
29538;SDS011;16482;51.046;4.498;2022-09-09T04:00:11;1.85;;;1.10;;
29538;SDS011;16482;51.046;4.498;2022-09-09T04:02:44;1.52;;;0.93;;
29538;SDS011;16482;51.046;4.498;2022-09-09T04:05:13;2.35;;;1.20;;
29538;SDS011;16482;51.046;4.498;2022-09-09T04:07:39;1.73;;;1.08;;
29538;SDS011;16482;51.046;4.498;2022-09-09T04:10:14;1.50;;;0.90;;
29538;SDS011;16482;51.046;4.498;2022-09-09T04:12:43;2.63;;;1.10;;
29538;SDS011;16482;51.046;4.498;2022-09-09T04:15:09;1.65;;;0.90;;
29538;SDS011;16482;51.046;4.498;2022-09-09T04:17:44;2.55;;;1.00;;
29538;SDS011;16482;51.046;4.498;2022-09-09T04:20:13;1.65;;;1.10;;
29538;SDS011;16482;51.046;4.498;2022-09-09T04:22:41;2.00;;;1.10;;
29538;SDS011;16482;51.046;4.498;2022-09-09T04:25:14;2.78;;;1.00;;
29538;SDS011;16482;51.046;4.498;2022-09-09T04:27:48;1.67;;;1.00;;
29538;SDS011;16482;51.046;4.498;2022-09-09T04:30:19;2.28;;;1.17;;
29538;SDS011;16482;51.046;4.498;2022-09-09T04:32:46;2.08;;;1.20;;
29538;SDS011;16482;51.046;4.498;2022-09-09T04:35:12;2.60;;;1.30;;
29538;SDS011;16482;51.046;4.498;2022-09-09T04:37:45;2.78;;;1.15;;
29538;SDS011;16482;51.046;4.498;2022-09-09T04:40:14;2.72;;;1.42;;
29538;SDS011;16482;51.046;4.498;2022-09-09T04:42:43;2.30;;;1.20;;
29538;SDS011;16482;51.046;4.498;2022-09-09T04:45:16;2.30;;;1.00;;
29538;SDS011;16482;51.046;4.498;2022-09-09T04:47:43;2.58;;;1.10;;
29538;SDS011;16482;51.046;4.498;2022-09-09T04:50:18;2.67;;;1.35;;
29538;SDS011;16482;51.046;4.498;2022-09-09T04:52:44;2.53;;;1.13;;
29538;SDS011;16482;51.046;4.498;2022-09-09T04:55:10;2.28;;;1.08;;
29538;SDS011;16482;51.046;4.498;2022-09-09T04:57:46;3.03;;;1.15;;
29538;SDS011;16482;51.046;4.498;2022-09-09T05:00:13;4.00;;;1.33;;
29538;SDS011;16482;51.046;4.498;2022-09-09T05:02:39;1.50;;;0.98;;
29538;SDS011;16482;51.046;4.498;2022-09-09T05:05:07;2.22;;;1.00;;
29538;SDS011;16482;51.046;4.498;2022-09-09T05:07:33;2.25;;;1.27;;
29538;SDS011;16482;51.046;4.498;2022-09-09T05:09:59;2.08;;;1.02;;
29538;SDS011;16482;51.046;4.498;2022-09-09T05:12:25;1.77;;;0.95;;
29538;SDS011;16482;51.046;4.498;2022-09-09T05:14:53;1.98;;;1.30;;
29538;SDS011;16482;51.046;4.498;2022-09-09T05:17:19;1.90;;;1.10;;
29538;SDS011;16482;51.046;4.498;2022-09-09T05:19:45;2.97;;;1.02;;
29538;SDS011;16482;51.046;4.498;2022-09-09T05:22:11;2.35;;;1.80;;
29538;SDS011;16482;51.046;4.498;2022-09-09T05:24:37;2.42;;;1.23;;
29538;SDS011;16482;51.046;4.498;2022-09-09T05:27:04;1.88;;;1.10;;
29538;SDS011;16482;51.046;4.498;2022-09-09T05:29:31;2.50;;;1.20;;
29538;SDS011;16482;51.046;4.498;2022-09-09T05:32:00;2.13;;;1.15;;
29538;SDS011;16482;51.046;4.498;2022-09-09T05:34:29;2.33;;;1.35;;
29538;SDS011;16482;51.046;4.498;2022-09-09T05:36:55;2.80;;;1.20;;
29538;SDS011;16482;51.046;4.498;2022-09-09T05:39:21;1.75;;;1.10;;
29538;SDS011;16482;51.046;4.498;2022-09-09T05:41:54;2.60;;;1.20;;
29538;SDS011;16482;51.046;4.498;2022-09-09T05:44:20;2.55;;;1.30;;
29538;SDS011;16482;51.046;4.498;2022-09-09T05:46:51;2.72;;;1.50;;
29538;SDS011;16482;51.046;4.498;2022-09-09T05:49:26;3.00;;;1.40;;
29538;SDS011;16482;51.046;4.498;2022-09-09T05:51:52;2.95;;;1.48;;
29538;SDS011;16482;51.046;4.498;2022-09-09T05:54:26;2.85;;;1.50;;
29538;SDS011;16482;51.046;4.498;2022-09-09T05:56:54;2.05;;;1.52;;
29538;SDS011;16482;51.046;4.498;2022-09-09T05:59:23;3.15;;;1.50;;
29538;SDS011;16482;51.046;4.498;2022-09-09T06:01:56;3.13;;;1.52;;
29538;SDS011;16482;51.046;4.498;2022-09-09T06:04:22;3.97;;;1.80;;
29538;SDS011;16482;51.046;4.498;2022-09-09T06:06:49;3.28;;;1.70;;
29538;SDS011;16482;51.046;4.498;2022-09-09T06:09:24;2.63;;;1.48;;
29538;SDS011;16482;51.046;4.498;2022-09-09T06:11:50;3.38;;;1.75;;
29538;SDS011;16482;51.046;4.498;2022-09-09T06:14:19;3.28;;;1.88;;
29538;SDS011;16482;51.046;4.498;2022-09-09T06:16:54;2.70;;;1.58;;
29538;SDS011;16482;51.046;4.498;2022-09-09T06:21:51;2.47;;;1.63;;
29538;SDS011;16482;51.046;4.498;2022-09-09T06:24:25;2.58;;;1.40;;
29538;SDS011;16482;51.046;4.498;2022-09-09T06:26:58;3.17;;;1.55;;
29538;SDS011;16482;51.046;4.498;2022-09-09T06:29:24;2.05;;;1.50;;
29538;SDS011;16482;51.046;4.498;2022-09-09T06:31:52;2.40;;;1.50;;
29538;SDS011;16482;51.046;4.498;2022-09-09T06:34:18;2.42;;;1.42;;
29538;SDS011;16482;51.046;4.498;2022-09-09T06:36:44;3.53;;;1.55;;
29538;SDS011;16482;51.046;4.498;2022-09-09T06:39:12;4.18;;;1.70;;
29538;SDS011;16482;51.046;4.498;2022-09-09T06:41:40;4.57;;;1.70;;
29538;SDS011;16482;51.046;4.498;2022-09-09T06:44:07;2.83;;;1.58;;
29538;SDS011;16482;51.046;4.498;2022-09-09T06:46:33;3.25;;;1.88;;
29538;SDS011;16482;51.046;4.498;2022-09-09T06:49:00;2.47;;;1.70;;
29538;SDS011;16482;51.046;4.498;2022-09-09T06:51:28;3.35;;;1.80;;
29538;SDS011;16482;51.046;4.498;2022-09-09T06:53:58;2.40;;;1.73;;
29538;SDS011;16482;51.046;4.498;2022-09-09T06:56:35;3.70;;;1.65;;
29538;SDS011;16482;51.046;4.498;2022-09-09T06:59:03;3.15;;;1.83;;
29538;SDS011;16482;51.046;4.498;2022-09-09T07:01:31;3.08;;;1.63;;
29538;SDS011;16482;51.046;4.498;2022-09-09T07:03:59;6.55;;;2.22;;
29538;SDS011;16482;51.046;4.498;2022-09-09T07:06:26;2.80;;;1.65;;
29538;SDS011;16482;51.046;4.498;2022-09-09T07:08:55;2.63;;;1.58;;
29538;SDS011;16482;51.046;4.498;2022-09-09T07:11:24;4.22;;;1.75;;
29538;SDS011;16482;51.046;4.498;2022-09-09T07:13:56;3.75;;;1.80;;
29538;SDS011;16482;51.046;4.498;2022-09-09T07:16:24;4.55;;;2.08;;
29538;SDS011;16482;51.046;4.498;2022-09-09T07:18:51;4.43;;;2.08;;
29538;SDS011;16482;51.046;4.498;2022-09-09T07:21:18;5.03;;;2.20;;
29538;SDS011;16482;51.046;4.498;2022-09-09T07:23:46;4.82;;;2.30;;
29538;SDS011;16482;51.046;4.498;2022-09-09T07:26:13;5.68;;;2.70;;
29538;SDS011;16482;51.046;4.498;2022-09-09T07:28:41;5.70;;;2.17;;
29538;SDS011;16482;51.046;4.498;2022-09-09T07:31:08;5.97;;;2.20;;
29538;SDS011;16482;51.046;4.498;2022-09-09T07:33:42;5.80;;;2.40;;
29538;SDS011;16482;51.046;4.498;2022-09-09T07:36:10;5.78;;;2.50;;
29538;SDS011;16482;51.046;4.498;2022-09-09T07:38:42;5.13;;;2.50;;
29538;SDS011;16482;51.046;4.498;2022-09-09T07:41:14;5.43;;;2.13;;
29538;SDS011;16482;51.046;4.498;2022-09-09T07:43:43;7.15;;;2.28;;
29538;SDS011;16482;51.046;4.498;2022-09-09T07:46:10;4.35;;;2.22;;
29538;SDS011;16482;51.046;4.498;2022-09-09T07:48:37;5.93;;;2.53;;
29538;SDS011;16482;51.046;4.498;2022-09-09T07:51:05;5.90;;;2.50;;
29538;SDS011;16482;51.046;4.498;2022-09-09T07:53:34;5.97;;;2.33;;
29538;SDS011;16482;51.046;4.498;2022-09-09T07:56:14;3.40;;;1.98;;
29538;SDS011;16482;51.046;4.498;2022-09-09T07:58:42;5.30;;;2.17;;
29538;SDS011;16482;51.046;4.498;2022-09-09T08:01:14;3.83;;;2.20;;
29538;SDS011;16482;51.046;4.498;2022-09-09T08:03:45;4.00;;;2.25;;
29538;SDS011;16482;51.046;4.498;2022-09-09T08:06:12;4.20;;;2.10;;
29538;SDS011;16482;51.046;4.498;2022-09-09T08:08:39;4.82;;;2.20;;
29538;SDS011;16482;51.046;4.498;2022-09-09T08:11:12;3.90;;;2.13;;
29538;SDS011;16482;51.046;4.498;2022-09-09T08:13:40;4.10;;;2.05;;
29538;SDS011;16482;51.046;4.498;2022-09-09T08:16:11;4.43;;;2.50;;
29538;SDS011;16482;51.046;4.498;2022-09-09T08:18:42;4.70;;;2.15;;
29538;SDS011;16482;51.046;4.498;2022-09-09T08:21:11;4.60;;;2.42;;
29538;SDS011;16482;51.046;4.498;2022-09-09T08:23:39;4.07;;;1.90;;
29538;SDS011;16482;51.046;4.498;2022-09-09T08:26:07;4.03;;;2.30;;
29538;SDS011;16482;51.046;4.498;2022-09-09T08:28:41;4.95;;;2.10;;
29538;SDS011;16482;51.046;4.498;2022-09-09T08:31:12;4.65;;;2.35;;
29538;SDS011;16482;51.046;4.498;2022-09-09T08:33:40;4.00;;;2.25;;
29538;SDS011;16482;51.046;4.498;2022-09-09T08:36:10;4.90;;;2.38;;
29538;SDS011;16482;51.046;4.498;2022-09-09T08:38:40;4.80;;;2.10;;
29538;SDS011;16482;51.046;4.498;2022-09-09T08:41:12;4.63;;;2.20;;
29538;SDS011;16482;51.046;4.498;2022-09-09T08:43:43;6.18;;;2.38;;
29538;SDS011;16482;51.046;4.498;2022-09-09T08:46:18;3.72;;;2.00;;
29538;SDS011;16482;51.046;4.498;2022-09-09T08:52:08;2.97;;;1.90;;
29538;SDS011;16482;51.046;4.498;2022-09-09T08:57:47;2.65;;;1.67;;
29538;SDS011;16482;51.046;4.498;2022-09-09T09:00:17;3.67;;;1.90;;
29538;SDS011;16482;51.046;4.498;2022-09-09T09:05:33;2.92;;;1.90;;
29538;SDS011;16482;51.046;4.498;2022-09-09T09:10:41;3.55;;;1.95;;
29538;SDS011;16482;51.046;4.498;2022-09-09T09:13:18;3.65;;;2.10;;
29538;SDS011;16482;51.046;4.498;2022-09-09T09:15:48;3.00;;;1.95;;
29538;SDS011;16482;51.046;4.498;2022-09-09T09:18:18;2.85;;;1.67;;
29538;SDS011;16482;51.046;4.498;2022-09-09T09:20:49;4.18;;;2.10;;
29538;SDS011;16482;51.046;4.498;2022-09-09T09:23:23;3.42;;;2.00;;
29538;SDS011;16482;51.046;4.498;2022-09-09T09:26:05;3.22;;;2.22;;
29538;SDS011;16482;51.046;4.498;2022-09-09T09:28:35;3.60;;;1.90;;
29538;SDS011;16482;51.046;4.498;2022-09-09T09:31:06;4.03;;;2.40;;
29538;SDS011;16482;51.046;4.498;2022-09-09T09:33:44;3.28;;;1.90;;
29538;SDS011;16482;51.046;4.498;2022-09-09T09:36:15;3.60;;;2.08;;
29538;SDS011;16482;51.046;4.498;2022-09-09T09:38:52;3.63;;;2.10;;
29538;SDS011;16482;51.046;4.498;2022-09-09T09:41:41;4.03;;;2.08;;
29538;SDS011;16482;51.046;4.498;2022-09-09T09:47:05;4.15;;;2.10;;
29538;SDS011;16482;51.046;4.498;2022-09-09T09:49:32;3.13;;;1.83;;
29538;SDS011;16482;51.046;4.498;2022-09-09T09:52:02;3.45;;;1.92;;
29538;SDS011;16482;51.046;4.498;2022-09-09T09:54:30;2.63;;;1.70;;
29538;SDS011;16482;51.046;4.498;2022-09-09T09:57:14;3.90;;;2.30;;
29538;SDS011;16482;51.046;4.498;2022-09-09T09:59:41;2.70;;;1.88;;
29538;SDS011;16482;51.046;4.498;2022-09-09T10:02:15;2.80;;;1.90;;
29538;SDS011;16482;51.046;4.498;2022-09-09T10:05:00;3.35;;;1.55;;
29538;SDS011;16482;51.046;4.498;2022-09-09T10:07:43;4.50;;;1.80;;
29538;SDS011;16482;51.046;4.498;2022-09-09T10:10:20;4.07;;;1.73;;
29538;SDS011;16482;51.046;4.498;2022-09-09T10:15:42;4.80;;;1.63;;
29538;SDS011;16482;51.046;4.498;2022-09-09T10:21:27;2.63;;;1.80;;
29538;SDS011;16482;51.046;4.498;2022-09-09T10:26:56;3.67;;;1.88;;
29538;SDS011;16482;51.046;4.498;2022-09-09T10:49:04;2.70;;;1.92;;
29538;SDS011;16482;51.046;4.498;2022-09-09T10:55:14;4.05;;;2.13;;
29538;SDS011;16482;51.046;4.498;2022-09-09T10:57:47;3.63;;;1.98;;
29538;SDS011;16482;51.046;4.498;2022-09-09T11:00:19;2.60;;;1.30;;
29538;SDS011;16482;51.046;4.498;2022-09-09T11:02:52;2.90;;;1.92;;
29538;SDS011;16482;51.046;4.498;2022-09-09T11:07:58;2.58;;;1.83;;
29538;SDS011;16482;51.046;4.498;2022-09-09T11:12:57;2.47;;;1.60;;
29538;SDS011;16482;51.046;4.498;2022-09-09T11:18:01;2.90;;;1.60;;
29538;SDS011;16482;51.046;4.498;2022-09-09T11:20:29;2.53;;;1.63;;
29538;SDS011;16482;51.046;4.498;2022-09-09T11:23:17;2.00;;;1.48;;
29538;SDS011;16482;51.046;4.498;2022-09-09T11:25:55;3.88;;;1.70;;
29538;SDS011;16482;51.046;4.498;2022-09-09T11:34:34;3.10;;;1.90;;
29538;SDS011;16482;51.046;4.498;2022-09-09T11:45:31;2.70;;;1.65;;
29538;SDS011;16482;51.046;4.498;2022-09-09T11:48:00;2.03;;;1.48;;
29538;SDS011;16482;51.046;4.498;2022-09-09T11:50:29;3.15;;;1.60;;
29538;SDS011;16482;51.046;4.498;2022-09-09T11:53:20;2.03;;;1.30;;
29538;SDS011;16482;51.046;4.498;2022-09-09T11:55:47;1.75;;;1.27;;
29538;SDS011;16482;51.046;4.498;2022-09-09T11:58:36;2.45;;;1.48;;
29538;SDS011;16482;51.046;4.498;2022-09-09T12:06:58;2.17;;;1.58;;
29538;SDS011;16482;51.046;4.498;2022-09-09T12:09:54;2.78;;;1.55;;
29538;SDS011;16482;51.046;4.498;2022-09-09T12:12:36;2.38;;;1.48;;
29538;SDS011;16482;51.046;4.498;2022-09-09T12:17:55;3.03;;;1.50;;
29538;SDS011;16482;51.046;4.498;2022-09-09T12:31:26;2.05;;;1.48;;
29538;SDS011;16482;51.046;4.498;2022-09-09T12:34:11;2.95;;;1.70;;
29538;SDS011;16482;51.046;4.498;2022-09-09T12:37:00;2.13;;;1.58;;
29538;SDS011;16482;51.046;4.498;2022-09-09T12:42:02;2.35;;;1.45;;
29538;SDS011;16482;51.046;4.498;2022-09-09T12:44:29;2.45;;;1.50;;
29538;SDS011;16482;51.046;4.498;2022-09-09T12:46:58;1.98;;;1.33;;
29538;SDS011;16482;51.046;4.498;2022-09-09T12:49:31;2.05;;;1.17;;
29538;SDS011;16482;51.046;4.498;2022-09-09T12:52:07;2.03;;;1.30;;
29538;SDS011;16482;51.046;4.498;2022-09-09T12:54:42;2.58;;;1.50;;
29538;SDS011;16482;51.046;4.498;2022-09-09T12:57:11;2.20;;;1.30;;
29538;SDS011;16482;51.046;4.498;2022-09-09T12:59:40;2.65;;;1.42;;
29538;SDS011;16482;51.046;4.498;2022-09-09T13:02:24;1.38;;;1.10;;
29538;SDS011;16482;51.046;4.498;2022-09-09T13:04:51;2.07;;;1.63;;
29538;SDS011;16482;51.046;4.498;2022-09-09T13:07:19;1.88;;;1.10;;
29538;SDS011;16482;51.046;4.498;2022-09-09T13:09:47;3.33;;;1.40;;
29538;SDS011;16482;51.046;4.498;2022-09-09T13:12:15;2.05;;;1.50;;
29538;SDS011;16482;51.046;4.498;2022-09-09T13:14:44;3.38;;;1.35;;
29538;SDS011;16482;51.046;4.498;2022-09-09T13:17:26;2.03;;;1.27;;
29538;SDS011;16482;51.046;4.498;2022-09-09T13:19:56;2.45;;;1.42;;
29538;SDS011;16482;51.046;4.498;2022-09-09T13:22:35;2.50;;;1.30;;
29538;SDS011;16482;51.046;4.498;2022-09-09T13:27:51;2.25;;;1.48;;
29538;SDS011;16482;51.046;4.498;2022-09-09T13:33:31;1.58;;;1.20;;
29538;SDS011;16482;51.046;4.498;2022-09-09T13:35:55;2.42;;;1.50;;
29538;SDS011;16482;51.046;4.498;2022-09-09T13:38:35;2.88;;;1.50;;
29538;SDS011;16482;51.046;4.498;2022-09-09T13:41:21;2.25;;;1.38;;
29538;SDS011;16482;51.046;4.498;2022-09-09T13:43:50;1.60;;;1.10;;
29538;SDS011;16482;51.046;4.498;2022-09-09T13:46:41;2.63;;;1.42;;
29538;SDS011;16482;51.046;4.498;2022-09-09T13:51:36;1.73;;;1.20;;
29538;SDS011;16482;51.046;4.498;2022-09-09T13:54:04;2.08;;;1.20;;
29538;SDS011;16482;51.046;4.498;2022-09-09T13:56:34;1.60;;;1.20;;
29538;SDS011;16482;51.046;4.498;2022-09-09T13:59:00;1.65;;;1.30;;
29538;SDS011;16482;51.046;4.498;2022-09-09T14:01:28;1.45;;;1.30;;
29538;SDS011;16482;51.046;4.498;2022-09-09T14:03:54;1.90;;;1.33;;
29538;SDS011;16482;51.046;4.498;2022-09-09T14:06:23;1.40;;;1.10;;
29538;SDS011;16482;51.046;4.498;2022-09-09T14:08:49;1.15;;;1.05;;
29538;SDS011;16482;51.046;4.498;2022-09-09T14:11:16;2.22;;;1.60;;
29538;SDS011;16482;51.046;4.498;2022-09-09T14:13:43;1.67;;;1.10;;
29538;SDS011;16482;51.046;4.498;2022-09-09T14:16:09;1.70;;;1.20;;
29538;SDS011;16482;51.046;4.498;2022-09-09T14:18:35;1.83;;;1.30;;
29538;SDS011;16482;51.046;4.498;2022-09-09T14:21:03;1.70;;;1.30;;
29538;SDS011;16482;51.046;4.498;2022-09-09T14:23:32;1.50;;;1.35;;
29538;SDS011;16482;51.046;4.498;2022-09-09T14:26:05;2.28;;;1.10;;
29538;SDS011;16482;51.046;4.498;2022-09-09T14:28:34;1.90;;;1.20;;
29538;SDS011;16482;51.046;4.498;2022-09-09T14:31:04;2.00;;;1.40;;
29538;SDS011;16482;51.046;4.498;2022-09-09T14:33:37;1.75;;;1.27;;
29538;SDS011;16482;51.046;4.498;2022-09-09T14:36:06;1.67;;;1.10;;
29538;SDS011;16482;51.046;4.498;2022-09-09T14:38:33;1.95;;;1.30;;
29538;SDS011;16482;51.046;4.498;2022-09-09T14:41:04;2.90;;;1.50;;
29538;SDS011;16482;51.046;4.498;2022-09-09T14:43:42;2.42;;;1.45;;
29538;SDS011;16482;51.046;4.498;2022-09-09T14:46:09;1.50;;;1.30;;
29538;SDS011;16482;51.046;4.498;2022-09-09T14:48:37;2.92;;;1.38;;
29538;SDS011;16482;51.046;4.498;2022-09-09T14:51:09;1.67;;;1.30;;
29538;SDS011;16482;51.046;4.498;2022-09-09T14:53:40;1.90;;;1.27;;
29538;SDS011;16482;51.046;4.498;2022-09-09T14:56:10;2.47;;;1.40;;
29538;SDS011;16482;51.046;4.498;2022-09-09T14:58:41;2.03;;;1.23;;
29538;SDS011;16482;51.046;4.498;2022-09-09T15:01:09;1.67;;;1.13;;
29538;SDS011;16482;51.046;4.498;2022-09-09T15:03:37;2.90;;;1.20;;
29538;SDS011;16482;51.046;4.498;2022-09-09T15:08:34;2.00;;;1.10;;
29538;SDS011;16482;51.046;4.498;2022-09-09T15:11:01;1.50;;;1.10;;
29538;SDS011;16482;51.046;4.498;2022-09-09T15:13:36;1.35;;;1.20;;
29538;SDS011;16482;51.046;4.498;2022-09-09T15:16:05;2.53;;;1.30;;
29538;SDS011;16482;51.046;4.498;2022-09-09T15:18:33;1.50;;;1.40;;
29538;SDS011;16482;51.046;4.498;2022-09-09T15:21:03;1.33;;;1.23;;
29538;SDS011;16482;51.046;4.498;2022-09-09T15:23:33;2.10;;;1.40;;
29538;SDS011;16482;51.046;4.498;2022-09-09T15:26:07;1.67;;;1.33;;
29538;SDS011;16482;51.046;4.498;2022-09-09T15:28:36;1.67;;;1.10;;
29538;SDS011;16482;51.046;4.498;2022-09-09T15:31:07;1.45;;;1.30;;
29538;SDS011;16482;51.046;4.498;2022-09-09T15:33:38;1.85;;;1.45;;
29538;SDS011;16482;51.046;4.498;2022-09-09T15:36:13;2.80;;;1.42;;
29538;SDS011;16482;51.046;4.498;2022-09-09T15:38:43;1.67;;;1.30;;
29538;SDS011;16482;51.046;4.498;2022-09-09T15:41:10;1.58;;;1.30;;
29538;SDS011;16482;51.046;4.498;2022-09-09T15:43:43;1.40;;;1.27;;
29538;SDS011;16482;51.046;4.498;2022-09-09T15:48:46;3.03;;;1.30;;
29538;SDS011;16482;51.046;4.498;2022-09-09T15:51:16;1.58;;;1.15;;
29538;SDS011;16482;51.046;4.498;2022-09-09T15:53:45;1.80;;;1.00;;
29538;SDS011;16482;51.046;4.498;2022-09-09T15:56:11;1.52;;;1.10;;
29538;SDS011;16482;51.046;4.498;2022-09-09T15:58:37;1.75;;;1.38;;
29538;SDS011;16482;51.046;4.498;2022-09-09T16:01:07;1.48;;;1.30;;
29538;SDS011;16482;51.046;4.498;2022-09-09T16:03:38;2.20;;;1.30;;
29538;SDS011;16482;51.046;4.498;2022-09-09T16:06:11;1.50;;;1.20;;
29538;SDS011;16482;51.046;4.498;2022-09-09T16:08:42;2.33;;;1.35;;
29538;SDS011;16482;51.046;4.498;2022-09-09T16:13:39;1.35;;;1.25;;
29538;SDS011;16482;51.046;4.498;2022-09-09T16:16:06;1.35;;;1.25;;
29538;SDS011;16482;51.046;4.498;2022-09-09T16:18:36;2.20;;;1.33;;
29538;SDS011;16482;51.046;4.498;2022-09-09T16:21:04;2.60;;;1.40;;
29538;SDS011;16482;51.046;4.498;2022-09-09T16:23:31;2.25;;;1.27;;
29538;SDS011;16482;51.046;4.498;2022-09-09T16:26:00;1.85;;;1.20;;
29538;SDS011;16482;51.046;4.498;2022-09-09T16:28:48;1.40;;;1.10;;
29538;SDS011;16482;51.046;4.498;2022-09-09T16:31:14;2.30;;;1.42;;
29538;SDS011;16482;51.046;4.498;2022-09-09T16:33:43;2.10;;;1.30;;
29538;SDS011;16482;51.046;4.498;2022-09-09T16:36:10;1.90;;;1.38;;
29538;SDS011;16482;51.046;4.498;2022-09-09T16:38:39;1.67;;;1.27;;
29538;SDS011;16482;51.046;4.498;2022-09-09T16:41:05;2.95;;;1.67;;
29538;SDS011;16482;51.046;4.498;2022-09-09T16:43:33;1.70;;;1.15;;
29538;SDS011;16482;51.046;4.498;2022-09-09T16:46:01;1.65;;;1.30;;
29538;SDS011;16482;51.046;4.498;2022-09-09T16:48:41;2.17;;;1.30;;
29538;SDS011;16482;51.046;4.498;2022-09-09T16:51:11;2.10;;;1.35;;
29538;SDS011;16482;51.046;4.498;2022-09-09T16:53:40;1.08;;;0.95;;
29538;SDS011;16482;51.046;4.498;2022-09-09T16:56:10;2.13;;;1.38;;
29538;SDS011;16482;51.046;4.498;2022-09-09T16:58:41;1.30;;;1.20;;
29538;SDS011;16482;51.046;4.498;2022-09-09T17:01:08;1.70;;;1.40;;
29538;SDS011;16482;51.046;4.498;2022-09-09T17:03:39;1.83;;;1.40;;
29538;SDS011;16482;51.046;4.498;2022-09-09T17:06:11;2.25;;;1.40;;
29538;SDS011;16482;51.046;4.498;2022-09-09T17:08:40;1.48;;;1.23;;
29538;SDS011;16482;51.046;4.498;2022-09-09T17:11:11;2.08;;;1.50;;
29538;SDS011;16482;51.046;4.498;2022-09-09T17:13:43;1.52;;;1.13;;
29538;SDS011;16482;51.046;4.498;2022-09-09T17:16:11;1.88;;;1.42;;
29538;SDS011;16482;51.046;4.498;2022-09-09T17:18:39;3.00;;;1.52;;
29538;SDS011;16482;51.046;4.498;2022-09-09T17:21:06;2.47;;;1.40;;
29538;SDS011;16482;51.046;4.498;2022-09-09T17:23:41;1.60;;;1.30;;
29538;SDS011;16482;51.046;4.498;2022-09-09T17:26:08;2.30;;;1.50;;
29538;SDS011;16482;51.046;4.498;2022-09-09T17:28:36;2.72;;;1.50;;
29538;SDS011;16482;51.046;4.498;2022-09-09T17:31:06;1.50;;;1.25;;
29538;SDS011;16482;51.046;4.498;2022-09-09T17:33:37;1.85;;;1.40;;
29538;SDS011;16482;51.046;4.498;2022-09-09T17:36:12;1.83;;;1.30;;
29538;SDS011;16482;51.046;4.498;2022-09-09T17:38:40;1.60;;;1.38;;
29538;SDS011;16482;51.046;4.498;2022-09-09T17:41:14;1.65;;;1.42;;
29538;SDS011;16482;51.046;4.498;2022-09-09T17:43:45;2.42;;;1.30;;
29538;SDS011;16482;51.046;4.498;2022-09-09T17:46:13;2.60;;;1.50;;
29538;SDS011;16482;51.046;4.498;2022-09-09T17:48:47;1.65;;;1.50;;
29538;SDS011;16482;51.046;4.498;2022-09-09T17:51:16;2.20;;;1.50;;